Time;durP1;ratioP1;P1;durP2;ratioP2;P2;SDS_P1;SDS_P2;PMS_P1;PMS_P2;Temp;Humidity;BMP_temperature;BMP_pressure;BME280_temperature;BME280_humidity;BME280_pressure;Samples;Min_cycle;Max_cycle;Signal;HPM_P1;HPM_P2
2021/04/02 00:01:07;;;;;;;1999.90;999.90;;;6.70;99.90;;;;;;4955569;29;20524;-95
2021/04/02 00:03:40;;;;;;;1999.90;999.90;;;6.70;99.90;;;;;;4962333;29;20210;-94
2021/04/02 00:06:11;;;;;;;1999.90;999.90;;;6.70;99.90;;;;;;4963485;29;20177;-94
2021/04/02 00:08:39;;;;;;;1999.90;999.90;;;6.70;99.90;;;;;;4965288;29;20083;-94
2021/04/02 00:11:12;;;;;;;1999.90;999.90;;;6.60;99.90;;;;;;4966330;29;20051;-96
2021/04/02 00:13:44;;;;;;;1999.90;999.90;;;6.60;99.90;;;;;;4966811;29;20087;-94
2021/04/02 00:16:15;;;;;;;1999.90;999.90;;;6.60;99.90;;;;;;4966430;28;20083;-95
2021/04/02 00:18:47;;;;;;;1999.90;999.90;;;6.50;99.90;;;;;;4970527;29;20130;-95
2021/04/02 00:21:21;;;;;;;1999.90;999.90;;;6.70;99.90;;;;;;4975244;28;20059;-95
2021/04/02 00:24:00;;;;;;;1999.90;999.90;;;6.60;99.90;;;;;;4973545;29;20047;-95
2021/04/02 00:26:40;;;;;;;1999.90;999.90;;;6.60;99.90;;;;;;4971680;28;20145;-95
2021/04/02 00:29:12;;;;;;;1999.90;999.90;;;6.60;99.90;;;;;;4972144;29;20067;-95
2021/04/02 00:31:47;;;;;;;;;;;6.60;99.90;;;;;;4972312;29;20052;-96
2021/04/02 00:34:37;;;;;;;1999.90;999.90;;;6.60;99.90;;;;;;4972919;29;19929;-95
2021/04/02 00:37:16;;;;;;;1999.90;999.90;;;6.60;99.90;;;;;;4971150;29;20083;-96
2021/04/02 00:39:51;;;;;;;1999.90;999.90;;;6.50;99.90;;;;;;4970843;29;20063;-95
2021/04/02 00:42:27;;;;;;;1999.90;999.90;;;6.50;99.90;;;;;;4971446;28;20051;-96
2021/04/02 00:44:58;;;;;;;1999.90;999.90;;;6.50;99.90;;;;;;4971468;29;20054;-95
2021/04/02 00:47:33;;;;;;;1999.90;999.90;;;6.50;99.90;;;;;;4970760;29;20059;-95
2021/04/02 00:50:01;;;;;;;1999.90;999.90;;;6.40;99.90;;;;;;4974165;29;20115;-96
2021/04/02 00:52:30;;;;;;;1999.90;999.90;;;6.40;99.90;;;;;;4974586;29;20055;-96
2021/04/02 00:55:11;;;;;;;1999.90;999.90;;;6.40;99.90;;;;;;4974656;29;20066;-95
2021/04/02 00:57:42;;;;;;;1999.90;999.90;;;6.50;99.90;;;;;;4974841;29;20066;-95
2021/04/02 01:00:21;;;;;;;1999.90;999.90;;;6.50;99.90;;;;;;4975670;29;20079;-96
2021/04/02 01:03:19;;;;;;;1999.90;999.90;;;6.50;99.90;;;;;;4968460;29;20054;-95
2021/04/02 01:06:03;;;;;;;1999.90;999.90;;;6.50;99.90;;;;;;4975281;29;20051;-96
2021/04/02 01:08:50;;;;;;;1999.90;999.90;;;6.60;99.90;;;;;;4975596;28;20083;-95
2021/04/02 01:11:40;;;;;;;1999.90;999.90;;;6.50;99.90;;;;;;4965675;28;20094;-95
2021/04/02 01:14:15;;;;;;;1999.90;999.90;;;6.50;99.90;;;;;;4975733;29;20438;-95
2021/04/02 01:16:47;;;;;;;1999.90;999.90;;;6.50;99.90;;;;;;4956735;29;20053;-95
2021/04/02 01:19:30;;;;;;;1999.90;999.90;;;6.50;99.90;;;;;;4971580;28;20059;-95
2021/04/02 01:22:03;;;;;;;1999.90;999.90;;;6.40;99.90;;;;;;4970872;29;20122;-96
2021/04/02 01:25:07;;;;;;;1999.90;999.90;;;6.50;99.90;;;;;;4969629;29;20055;-95
2021/04/02 01:28:30;;;;;;;1999.90;999.90;;;6.40;99.90;;;;;;4968823;28;20055;-94
2021/04/02 01:31:08;;;;;;;1999.90;999.90;;;6.40;99.90;;;;;;4940177;29;20059;-96
2021/04/02 01:33:45;;;;;;;1999.90;999.90;;;6.50;99.90;;;;;;4974365;29;20070;-95
2021/04/02 01:36:21;;;;;;;1999.90;999.90;;;6.40;99.90;;;;;;4972663;29;20102;-95
2021/04/02 01:39:14;;;;;;;1999.90;999.90;;;6.50;99.90;;;;;;4973706;29;20059;-96
2021/04/02 01:42:00;;;;;;;1999.90;999.90;;;6.50;99.90;;;;;;4981329;28;20045;-96
2021/04/02 01:48:05;;;;;;;1999.90;999.90;;;6.50;99.90;;;;;;4976725;29;20051;-94
2021/04/02 01:50:51;;;;;;;1999.90;999.90;;;6.60;99.90;;;;;;4974646;28;20075;-96
2021/04/02 01:53:29;;;;;;;1999.90;999.90;;;6.60;99.90;;;;;;4974849;28;20051;-96
2021/04/02 01:56:24;;;;;;;1999.90;999.90;;;6.60;99.90;;;;;;4974364;28;20051;-95
2021/04/02 01:59:18;;;;;;;1999.90;999.90;;;6.60;99.90;;;;;;4974027;29;20065;-96
2021/04/02 02:01:53;;;;;;;1999.90;999.90;;;6.60;99.90;;;;;;4972241;29;20050;-96
2021/04/02 02:04:30;;;;;;;1999.90;999.90;;;6.50;99.90;;;;;;4973412;29;20083;-96
2021/04/02 02:07:14;;;;;;;1999.90;999.90;;;6.50;99.90;;;;;;4974267;29;20059;-96
2021/04/02 02:09:54;;;;;;;1999.90;999.90;;;6.50;99.90;;;;;;4973841;29;20047;-95
2021/04/02 02:12:40;;;;;;;1999.90;999.90;;;6.50;99.90;;;;;;4973962;29;20043;-96
2021/04/02 02:15:29;;;;;;;1999.90;999.90;;;6.50;99.90;;;;;;4967874;29;20143;-95
2021/04/02 02:18:07;;;;;;;1999.90;999.90;;;6.50;99.90;;;;;;4973870;29;20086;-96
2021/04/02 02:21:00;;;;;;;1999.90;999.90;;;6.50;99.90;;;;;;4974767;29;20081;-95
2021/04/02 02:23:31;;;;;;;1999.90;999.90;;;6.40;99.90;;;;;;4974629;29;20051;-95
2021/04/02 02:26:14;;;;;;;1999.90;999.90;;;6.50;99.90;;;;;;4970447;29;20083;-95
2021/04/02 02:28:53;;;;;;;;;;;6.40;99.90;;;;;;4957286;29;20494;-95
2021/04/02 02:31:36;;;;;;;1999.90;999.90;;;6.50;99.90;;;;;;4957369;29;19942;-95
2021/04/02 02:34:20;;;;;;;1999.90;999.90;;;6.50;99.90;;;;;;4968964;29;20055;-94
2021/04/02 02:37:00;;;;;;;1999.90;999.90;;;6.40;99.90;;;;;;4969417;29;20055;-95
2021/04/02 02:39:32;;;;;;;1999.90;999.90;;;6.40;99.90;;;;;;4969475;28;20062;-95
2021/04/02 02:42:10;;;;;;;1999.90;999.90;;;6.50;99.90;;;;;;4970031;29;20062;-95
2021/04/02 02:44:51;;;;;;;1999.90;999.90;;;6.50;99.90;;;;;;4967485;28;20051;-95
2021/04/02 02:47:28;;;;;;;1999.90;999.90;;;6.50;99.90;;;;;;4967642;28;20085;-94
2021/04/02 02:50:01;;;;;;;1999.90;999.90;;;6.50;99.90;;;;;;4967831;29;20118;-95
2021/04/02 02:52:36;;;;;;;1999.90;999.90;;;6.50;99.90;;;;;;4968759;29;20054;-94
2021/04/02 02:55:08;;;;;;;1999.90;999.90;;;6.50;99.90;;;;;;4967703;29;20055;-95
2021/04/02 02:57:37;;;;;;;1999.90;999.90;;;6.50;99.90;;;;;;4966895;29;20055;-95
2021/04/02 03:00:13;;;;;;;1999.90;999.90;;;6.50;99.90;;;;;;4967205;29;20055;-94
2021/04/02 03:02:47;;;;;;;1999.90;999.90;;;6.50;99.90;;;;;;4967709;29;20075;-95
2021/04/02 03:05:17;;;;;;;1999.90;999.90;;;6.50;99.90;;;;;;4967119;29;20055;-95
2021/04/02 03:07:53;;;;;;;1999.90;999.90;;;6.40;99.90;;;;;;4968229;28;20078;-94
2021/04/02 03:10:22;;;;;;;1999.90;999.90;;;6.50;99.90;;;;;;4969008;29;20119;-94
2021/04/02 03:12:55;;;;;;;1999.90;999.90;;;6.50;99.90;;;;;;4968888;29;20067;-95
2021/04/02 03:15:32;;;;;;;1999.90;999.90;;;6.50;99.90;;;;;;4972330;29;20062;-96
2021/04/02 03:18:30;;;;;;;1999.90;999.90;;;6.40;99.90;;;;;;4968723;28;20087;-95
2021/04/02 03:21:03;;;;;;;1999.90;999.90;;;6.40;99.90;;;;;;4968442;29;20066;-95
2021/04/02 03:23:38;;;;;;;1999.90;999.90;;;6.40;99.90;;;;;;4966450;29;20119;-95
2021/04/02 03:26:10;;;;;;;1999.90;999.90;;;6.40;99.90;;;;;;4969995;29;20110;-95
2021/04/02 03:28:43;;;;;;;1999.90;999.90;;;6.30;99.90;;;;;;4968326;28;20067;-95
2021/04/02 03:31:15;;;;;;;1999.90;999.90;;;6.30;99.90;;;;;;4967295;29;20055;-95
2021/04/02 03:33:56;;;;;;;1999.90;999.90;;;6.40;99.90;;;;;;4965415;29;20047;-95
2021/04/02 03:36:28;;;;;;;1999.90;999.90;;;6.30;99.90;;;;;;4965724;28;20054;-95
2021/04/02 03:38:59;;;;;;;1999.90;999.90;;;6.30;99.90;;;;;;4960024;29;20059;-95
2021/04/02 03:41:33;;;;;;;1999.90;999.90;;;6.30;99.90;;;;;;4968642;28;20055;-95
2021/04/02 03:44:04;;;;;;;1999.90;999.90;;;6.30;99.90;;;;;;4966525;29;20047;-95
2021/04/02 03:46:36;;;;;;;1999.90;999.90;;;6.30;99.90;;;;;;4967364;29;20058;-95
2021/04/02 03:49:14;;;;;;;1999.90;999.90;;;6.30;99.90;;;;;;4966970;29;20059;-95
2021/04/02 03:51:47;;;;;;;1999.90;999.90;;;6.30;99.90;;;;;;4966204;28;20066;-95
2021/04/02 03:54:20;;;;;;;1999.90;999.90;;;6.30;99.90;;;;;;4964528;28;20051;-96
2021/04/02 03:56:57;;;;;;;1999.90;999.90;;;6.30;99.90;;;;;;4948469;29;20059;-94
2021/04/02 03:59:33;;;;;;;1999.90;999.90;;;6.30;99.90;;;;;;4965317;29;20310;-96
2021/04/02 04:02:05;;;;;;;1999.90;999.90;;;6.20;99.90;;;;;;4966066;29;20055;-96
2021/04/02 04:04:41;;;;;;;1999.90;999.90;;;6.30;99.90;;;;;;4969350;28;20079;-95
2021/04/02 04:07:16;;;;;;;1999.90;999.90;;;6.20;99.90;;;;;;4968539;29;20075;-95
2021/04/02 04:10:00;;;;;;;1999.90;999.90;;;6.20;99.90;;;;;;4968543;29;20055;-95
2021/04/02 04:12:46;;;;;;;1999.90;999.90;;;6.20;99.90;;;;;;4970544;29;20063;-95
2021/04/02 04:15:32;;;;;;;1999.90;999.90;;;6.20;99.90;;;;;;4967264;29;20054;-94
2021/04/02 04:24:48;;;;;;;1999.90;999.90;;;6.20;99.90;;;;;;4974560;29;20387;-96
2021/04/02 04:27:45;;;;;;;1999.90;999.90;;;6.20;99.90;;;;;;4959639;29;20054;-96
2021/04/02 04:38:13;;;;;;;1999.90;999.90;;;6.20;99.90;;;;;;4968966;28;20124;-95
2021/04/02 04:40:47;;;;;;;1999.90;999.90;;;6.20;99.90;;;;;;4967633;28;20058;-95
2021/04/02 04:43:28;;;;;;;1999.90;999.90;;;6.20;99.90;;;;;;4968831;29;20067;-96
2021/04/02 04:46:09;;;;;;;1999.90;999.90;;;6.20;99.90;;;;;;4968125;28;20063;-95
2021/04/02 04:51:58;;;;;;;1999.90;999.90;;;6.20;99.90;;;;;;4952266;28;20467;-96
2021/04/02 04:54:46;;;;;;;1999.90;999.90;;;6.20;99.90;;;;;;4977227;28;20482;-96
2021/04/02 04:57:39;;;;;;;1999.90;999.90;;;6.10;99.90;;;;;;4978132;28;20058;-95
2021/04/02 05:00:21;;;;;;;1999.90;999.90;;;6.10;99.90;;;;;;4965494;29;20122;-96
2021/04/02 05:02:55;;;;;;;1999.90;999.90;;;6.10;99.90;;;;;;4977503;28;20058;-95
2021/04/02 05:05:44;;;;;;;1999.90;999.90;;;6.10;99.90;;;;;;4964892;28;20046;-96
2021/04/02 05:08:44;;;;;;;1999.90;999.90;;;6.10;99.90;;;;;;4975141;29;20063;-95
2021/04/02 05:11:30;;;;;;;1999.90;999.90;;;6.00;99.90;;;;;;4961527;29;20127;-96
2021/04/02 05:24:59;;;;;;;1999.90;999.90;;;6.00;99.90;;;;;;4959087;29;20054;-96
2021/04/02 05:28:03;;;;;;;1999.90;999.90;;;6.00;99.90;;;;;;4917087;29;20078;-96
2021/04/02 05:30:58;;;;;;;1999.90;999.90;;;6.10;99.90;;;;;;4916317;29;20065;-96
2021/04/02 05:40:50;;;;;;;1999.90;999.90;;;6.20;99.90;;;;;;4917646;29;20068;-96
2021/04/02 05:43:37;;;;;;;1999.90;999.90;;;6.20;99.90;;;;;;4900598;29;20053;-95
2021/04/02 05:46:22;;;;;;;1999.90;999.90;;;6.20;99.90;;;;;;4941704;29;20056;-96
2021/04/02 05:48:58;;;;;;;1999.90;999.90;;;6.20;99.90;;;;;;4946215;29;20059;-95
2021/04/02 05:51:28;;;;;;;1999.90;999.90;;;6.30;99.90;;;;;;4946030;29;20146;-96
2021/04/02 05:54:10;;;;;;;1999.90;999.90;;;6.30;99.90;;;;;;4939813;29;20075;-96
2021/04/02 05:57:20;;;;;;;1999.90;999.90;;;6.30;99.90;;;;;;4952121;29;20055;-96
2021/04/02 06:00:10;;;;;;;1999.90;999.90;;;6.40;99.90;;;;;;4951831;29;20139;-95
2021/04/02 06:02:58;;;;;;;1999.90;999.90;;;6.40;99.90;;;;;;4949783;29;20071;-95
2021/04/02 06:05:46;;;;;;;1999.90;999.90;;;6.30;99.90;;;;;;4951029;29;20479;-95
2021/04/02 06:08:47;;;;;;;1999.90;999.90;;;6.40;99.90;;;;;;4940924;29;20056;-96
2021/04/02 06:14:26;;;;;;;1999.90;999.90;;;6.50;99.90;;;;;;4953068;29;20051;-96
2021/04/02 06:17:34;;;;;;;1999.90;999.90;;;6.50;99.90;;;;;;4937504;29;20084;-96
2021/04/02 06:20:27;;;;;;;1999.90;999.90;;;6.60;99.90;;;;;;4956627;29;20078;-95
2021/04/02 06:23:37;;;;;;;1999.90;999.90;;;6.60;99.90;;;;;;4953557;29;20027;-96
2021/04/02 06:26:16;;;;;;;1999.90;999.90;;;6.60;99.90;;;;;;4955031;29;20051;-95
2021/04/02 06:28:53;;;;;;;1999.90;999.90;;;6.60;99.90;;;;;;4955622;29;20046;-96
2021/04/02 06:31:57;;;;;;;1999.90;999.90;;;6.60;99.90;;;;;;4953623;29;20084;-96
2021/04/02 06:34:48;;;;;;;1999.90;999.90;;;6.60;99.90;;;;;;4958177;29;20048;-96
2021/04/02 06:37:37;;;;;;;1999.90;999.90;;;6.60;99.90;;;;;;4952578;29;20066;-96
2021/04/02 06:40:17;;;;;;;1999.90;999.90;;;6.60;99.90;;;;;;4960284;29;20063;-96
2021/04/02 06:49:31;;;;;;;1999.90;999.90;;;6.70;99.90;;;;;;4911760;29;20079;-96
2021/04/02 06:54:45;;;;;;;1999.90;999.90;;;6.70;99.90;;;;;;5116755;23;20129;-96
2021/04/02 06:57:14;;;;;;;1999.90;999.90;;;6.70;99.90;;;;;;4982437;28;20054;-96
2021/04/02 06:59:43;;;;;;;1999.90;999.90;;;6.70;99.90;;;;;;4983774;28;20073;-96
2021/04/02 07:02:16;;;;;;;1999.90;999.90;;;6.80;99.90;;;;;;4983247;28;20167;-95
2021/04/02 07:04:45;;;;;;;1999.90;999.90;;;6.80;99.90;;;;;;4983347;28;20504;-95
2021/04/02 07:07:13;;;;;;;1999.90;999.90;;;6.90;99.90;;;;;;4985508;28;20051;-95
2021/04/02 07:09:43;;;;;;;1999.90;999.90;;;6.90;99.90;;;;;;4988794;28;20122;-96
2021/04/02 07:12:13;;;;;;;1999.90;999.90;;;6.90;99.90;;;;;;4987041;28;20119;-96
2021/04/02 07:14:41;;;;;;;1999.90;999.90;;;6.90;99.90;;;;;;4983618;28;20051;-94
2021/04/02 07:17:14;;;;;;;1999.90;999.90;;;6.90;99.90;;;;;;4990878;28;20074;-95
2021/04/02 07:19:45;;;;;;;;;;;7.00;99.90;;;;;;4973343;28;20061;-95
2021/04/02 07:22:13;;;;;;;1999.90;999.90;;;7.00;99.90;;;;;;4986913;28;19932;-96
2021/04/02 07:24:44;;;;;;;1999.90;999.90;;;7.00;99.90;;;;;;4987467;28;20046;-96
2021/04/02 07:27:17;;;;;;;1999.90;999.90;;;7.00;99.90;;;;;;4988170;28;20089;-96
2021/04/02 07:29:49;;;;;;;1999.90;999.90;;;7.00;99.90;;;;;;4987335;28;20141;-96
2021/04/02 07:32:17;;;;;;;1999.90;999.90;;;7.00;99.90;;;;;;4986339;28;20054;-96
2021/04/02 07:34:48;;;;;;;1999.90;999.90;;;6.90;99.90;;;;;;4979092;28;20061;-95
2021/04/02 07:37:17;;;;;;;1999.90;999.90;;;7.00;99.90;;;;;;4980480;28;20051;-95
2021/04/02 07:39:47;;;;;;;1999.90;999.90;;;7.00;99.90;;;;;;4980641;28;20054;-95
2021/04/02 07:42:15;;;;;;;1999.90;999.90;;;7.00;99.90;;;;;;4982933;28;20051;-95
2021/04/02 07:44:49;;;;;;;1999.90;999.90;;;7.00;99.90;;;;;;4982727;28;20046;-96
2021/04/02 07:47:17;;;;;;;1999.90;999.90;;;7.10;99.90;;;;;;4982407;28;20058;-96
2021/04/02 07:53:45;;;;;;;1999.90;999.90;;;7.10;99.90;;;;;;4960660;28;20123;-95
2021/04/02 07:56:16;;;;;;;1999.90;999.90;;;7.10;99.90;;;;;;4964350;29;20122;-96
2021/04/02 07:58:50;;;;;;;1999.90;999.90;;;7.20;99.90;;;;;;4964555;29;20050;-96
2021/04/02 08:01:22;;;;;;;1999.90;999.90;;;7.10;99.90;;;;;;4964459;29;20055;-96
2021/04/02 08:03:53;;;;;;;1999.90;999.90;;;7.20;99.90;;;;;;4962615;29;20082;-96
2021/04/02 08:06:34;;;;;;;1999.90;999.90;;;7.20;99.90;;;;;;4963037;29;20051;-95
2021/04/02 08:09:07;;;;;;;1999.90;999.90;;;7.30;99.90;;;;;;4964427;29;20479;-96
2021/04/02 08:11:37;;;;;;;1999.90;999.90;;;7.30;99.90;;;;;;4966305;29;20101;-95
2021/04/02 08:14:11;;;;;;;1999.90;999.90;;;7.30;99.90;;;;;;4964176;29;20047;-95
2021/04/02 08:16:47;;;;;;;1999.90;999.90;;;7.30;99.90;;;;;;4965692;29;20141;-96
2021/04/02 08:19:20;;;;;;;1999.90;999.90;;;7.30;99.90;;;;;;4967449;29;20059;-96
2021/04/02 08:21:52;;;;;;;1999.90;999.90;;;7.30;99.90;;;;;;4967210;29;20111;-94
2021/04/02 08:24:22;;;;;;;1999.90;999.90;;;7.20;99.90;;;;;;4971051;29;20103;-95
2021/04/02 08:26:50;;;;;;;1999.90;999.90;;;7.30;99.90;;;;;;4963954;29;20539;-96
2021/04/02 08:29:21;;;;;;;1999.90;999.90;;;7.30;99.90;;;;;;4962744;29;20058;-96
2021/04/02 08:31:51;;;;;;;1999.90;999.90;;;7.30;99.90;;;;;;4959677;29;20078;-96
2021/04/02 08:34:27;;;;;;;1999.90;999.90;;;7.20;99.90;;;;;;4960072;29;20055;-95
2021/04/02 08:36:58;;;;;;;1999.90;999.90;;;7.30;99.90;;;;;;4964458;28;20114;-95
2021/04/02 08:39:48;;;;;;;1999.90;999.90;;;7.40;99.90;;;;;;4968667;29;20051;-95
2021/04/02 08:42:20;;;;;;;1999.90;999.90;;;7.30;99.90;;;;;;4951305;29;20056;-93
2021/04/02 08:44:48;;;;;;;1999.90;999.90;;;7.30;99.90;;;;;;4954487;29;20561;-93
2021/04/02 08:47:17;;;;;;;1999.90;999.90;;;7.40;99.90;;;;;;4941013;29;20059;-94
2021/04/02 08:49:47;;;;;;;1999.90;999.90;;;7.40;99.90;;;;;;4959191;29;20439;-93
2021/04/02 08:52:16;;;;;;;1999.90;999.90;;;7.50;99.90;;;;;;4959741;29;20078;-94
2021/04/02 08:54:45;;;;;;;1999.90;999.90;;;7.60;99.90;;;;;;4975828;28;20482;-93
2021/04/02 08:57:15;;;;;;;1999.90;999.90;;;7.50;99.90;;;;;;4979551;28;20065;-93
2021/04/02 08:59:44;;;;;;;1999.90;999.90;;;7.60;99.90;;;;;;4980157;28;20074;-93
2021/04/02 09:02:15;;;;;;;1999.90;999.90;;;7.60;99.90;;;;;;4988825;28;20122;-94
2021/04/02 09:04:44;;;;;;;1999.90;999.90;;;7.60;99.90;;;;;;4986012;28;20042;-93
2021/04/02 09:07:12;;;;;;;1999.90;999.90;;;7.60;99.90;;;;;;4979446;28;20066;-94
2021/04/02 09:09:46;;;;;;;1999.90;999.90;;;7.70;99.90;;;;;;4978985;28;20073;-92
2021/04/02 09:12:15;;;;;;;1999.90;999.90;;;7.70;99.90;;;;;;4979375;28;20046;-93
2021/04/02 09:14:43;;;;;;;1999.90;999.90;;;7.60;99.90;;;;;;4978866;28;20074;-92
2021/04/02 09:17:13;;;;;;;1999.90;999.90;;;7.70;99.90;;;;;;4978427;28;20481;-92
2021/04/02 09:19:41;;;;;;;1999.90;999.90;;;7.70;99.90;;;;;;4979346;28;20050;-93
2021/04/02 09:22:14;;;;;;;1999.90;999.90;;;7.80;99.70;;;;;;4960936;28;20141;-93
2021/04/02 09:24:42;;;;;;;1999.90;999.90;;;7.80;99.90;;;;;;4970073;28;20062;-93
2021/04/02 09:31:14;;;;;;;1999.90;999.90;;;7.90;99.80;;;;;;4938313;29;20583;-94
2021/04/02 09:33:41;;;;;;;1999.90;999.90;;;7.90;99.20;;;;;;4938386;29;20051;-93
2021/04/02 09:36:09;;;;;;;1999.90;999.90;;;7.90;99.00;;;;;;4932949;29;20550;-93
2021/04/02 09:38:36;;;;;;;1999.90;999.90;;;7.90;99.50;;;;;;4919417;29;20139;-93
2021/04/02 09:41:04;;;;;;;1999.90;999.90;;;8.00;99.00;;;;;;4923149;29;20051;-94
2021/04/02 09:43:48;;;;;;;1999.90;999.90;;;8.00;98.60;;;;;;4940425;29;20048;-96
2021/04/02 09:46:28;;;;;;;1999.90;999.90;;;8.00;98.50;;;;;;4946971;29;20104;-96
2021/04/02 09:49:18;;;;;;;1999.90;999.90;;;8.00;98.90;;;;;;4982677;28;20055;-96
2021/04/02 09:51:57;;;;;;;1999.90;999.90;;;8.00;99.10;;;;;;4983440;28;20173;-96
2021/04/02 09:54:27;;;;;;;1999.90;999.90;;;8.20;99.60;;;;;;4991278;28;20055;-96
2021/04/02 09:57:15;;;;;;;1999.90;999.90;;;8.20;99.20;;;;;;4991287;28;20063;-96
2021/04/02 10:00:12;;;;;;;1999.90;999.90;;;8.30;99.20;;;;;;4990570;28;20046;-95
2021/04/02 10:02:41;;;;;;;1999.90;999.90;;;8.20;99.30;;;;;;4989206;28;20058;-96
2021/04/02 10:05:16;;;;;;;1999.90;999.90;;;8.20;99.30;;;;;;4991180;28;20046;-95
2021/04/02 10:07:47;;;;;;;1999.90;999.90;;;8.20;99.50;;;;;;4988366;28;20114;-96
2021/04/02 10:10:19;;;;;;;1999.90;999.90;;;8.30;99.70;;;;;;4991055;28;20054;-95
2021/04/02 10:12:50;;;;;;;1999.90;999.90;;;8.40;99.70;;;;;;4991452;28;20051;-95
2021/04/02 10:15:19;;;;;;;1999.90;999.90;;;8.30;99.20;;;;;;4987443;28;20070;-95
2021/04/02 10:17:48;;;;;;;1999.90;999.90;;;8.30;98.40;;;;;;4986528;28;20058;-94
2021/04/02 10:20:20;;;;;;;1999.90;999.90;;;8.40;98.60;;;;;;4986166;28;20055;-96
2021/04/02 10:22:48;;;;;;;1999.90;999.90;;;8.40;98.00;;;;;;4988585;28;20414;-96
2021/04/02 10:25:22;;;;;;;1999.90;999.90;;;8.50;97.90;;;;;;4985077;28;20054;-96
2021/04/02 10:27:55;;;;;;;1999.90;999.90;;;8.50;98.40;;;;;;4990867;28;20106;-96
2021/04/02 10:30:29;;;;;;;1999.90;999.90;;;8.50;98.30;;;;;;4985430;28;20421;-95
2021/04/02 10:33:05;;;;;;;1999.90;999.90;;;8.50;98.30;;;;;;4990233;28;20063;-96
2021/04/02 10:35:37;;;;;;;1999.90;999.90;;;8.50;98.90;;;;;;4992309;28;20090;-95
2021/04/02 10:38:10;;;;;;;1999.90;999.90;;;8.50;98.50;;;;;;4991109;28;20061;-95
2021/04/02 10:40:48;;;;;;;1999.90;999.90;;;8.40;98.20;;;;;;4987312;28;20073;-95
2021/04/02 10:47:11;;;;;;;1999.90;999.90;;;8.40;97.90;;;;;;4947102;28;20096;-95
2021/04/02 10:52:53;;;;;;;1999.90;999.90;;;8.50;98.10;;;;;;5019503;23;20066;-96
2021/04/02 10:55:45;;;;;;;1999.90;999.90;;;8.40;97.90;;;;;;5002672;28;20110;-96
2021/04/02 10:58:51;;;;;;;1999.90;999.90;;;8.30;98.60;;;;;;4986291;28;20055;-96
2021/04/02 11:01:49;;;;;;;1999.90;999.90;;;8.40;98.60;;;;;;4995532;28;20038;-96
2021/04/02 11:04:18;;;;;;;1999.90;999.90;;;8.50;98.20;;;;;;5003116;28;20042;-95
2021/04/02 11:06:45;;;;;;;1999.90;999.90;;;8.60;98.20;;;;;;5004570;28;20501;-95
2021/04/02 11:09:12;;;;;;;1999.90;999.90;;;8.60;98.30;;;;;;5000076;28;20519;-94
2021/04/02 11:11:41;;;;;;;1999.90;999.90;;;8.60;98.00;;;;;;4996512;28;20509;-94
2021/04/02 11:14:15;;;;;;;1999.90;999.90;;;8.70;98.30;;;;;;4996453;28;20047;-96
2021/04/02 11:17:01;;;;;;;1999.90;999.90;;;8.70;98.20;;;;;;5003468;28;20054;-95
2021/04/02 11:19:41;;;;;;;1999.90;999.90;;;8.60;98.20;;;;;;5005793;28;20420;-96
2021/04/02 11:22:09;;;;;;;1999.90;999.90;;;8.60;98.10;;;;;;4999521;28;20485;-96
2021/04/02 11:25:03;;;;;;;1999.90;999.90;;;8.70;98.10;;;;;;4997575;28;20050;-95
2021/04/02 11:27:38;;;;;;;1999.90;999.90;;;8.60;97.70;;;;;;5000216;28;20304;-96
2021/04/02 11:30:15;;;;;;;1999.90;999.90;;;8.60;98.00;;;;;;4997307;28;20089;-95
2021/04/02 11:32:51;;;;;;;1999.90;999.90;;;8.60;97.90;;;;;;4998095;28;20050;-95
2021/04/02 11:35:22;;;;;;;1999.90;999.90;;;8.60;98.00;;;;;;4996706;28;20046;-96
2021/04/02 11:37:50;;;;;;;1999.90;999.90;;;8.60;98.30;;;;;;4998696;28;20125;-94
2021/04/02 11:43:24;;;;;;;1999.90;999.90;;;8.60;98.70;;;;;;4991108;28;20124;-93
2021/04/02 11:46:05;;;;;;;1999.90;999.90;;;8.70;99.10;;;;;;4996402;28;20046;-93
2021/04/02 11:48:35;;;;;;;1999.90;999.90;;;8.70;99.30;;;;;;4997175;28;20074;-94
2021/04/02 11:51:04;;;;;;;1999.90;999.90;;;8.60;99.20;;;;;;4996728;28;20426;-94
2021/04/02 11:53:31;;;;;;;1999.90;999.90;;;8.50;99.50;;;;;;4995858;28;20069;-94
2021/04/02 11:56:00;;;;;;;1999.90;999.90;;;8.50;99.70;;;;;;4996714;28;20133;-93
2021/04/02 11:58:27;;;;;;;1999.90;999.90;;;8.50;99.80;;;;;;4996439;28;20117;-94
2021/04/02 12:00:55;;;;;;;1999.90;999.90;;;8.50;99.30;;;;;;4995709;28;20054;-95
2021/04/02 12:03:27;;;;;;;1999.90;999.90;;;8.60;98.70;;;;;;4996004;28;20054;-95
2021/04/02 12:06:01;;;;;;;1999.90;999.90;;;8.50;98.70;;;;;;4996031;28;20061;-94
2021/04/02 12:08:53;;;;;;;1999.90;999.90;;;8.60;99.30;;;;;;4995747;28;20058;-94
2021/04/02 12:11:34;;;;;;;1999.90;999.90;;;8.70;99.30;;;;;;4996756;28;20069;-94
2021/04/02 12:14:02;;;;;;;1999.90;999.90;;;8.80;98.60;;;;;;5001284;28;20081;-93
2021/04/02 12:16:30;;;;;;;1999.90;999.90;;;8.70;98.90;;;;;;5002085;28;20114;-94
2021/04/02 12:19:01;;;;;;;1999.90;999.90;;;8.70;99.10;;;;;;5006476;28;20077;-94
2021/04/02 12:21:28;;;;;;;1999.90;999.90;;;8.70;99.60;;;;;;4999182;28;20054;-94
2021/04/02 12:27:01;;;;;;;1999.90;999.90;;;8.60;99.40;;;;;;4993347;28;20153;-93
2021/04/02 12:29:32;;;;;;;1999.90;999.90;;;8.60;99.40;;;;;;5002116;28;20482;-95
2021/04/02 12:32:04;;;;;;;1999.90;999.90;;;8.60;99.50;;;;;;5006554;28;20076;-95
2021/04/02 12:34:32;;;;;;;1999.90;999.90;;;8.60;99.60;;;;;;5014467;28;20050;-94
2021/04/02 12:37:16;;;;;;;;;;;;;;;;;;;;;
2021/04/02 12:39:48;;;;;;;1999.90;999.90;;;8.70;99.40;;;;;;5000727;28;20054;-95
2021/04/02 12:42:35;;;;;;;1999.90;999.90;;;8.70;99.00;;;;;;4998298;28;20137;-94
2021/04/02 12:45:09;;;;;;;1999.90;999.90;;;8.80;99.10;;;;;;4998402;28;20046;-93
2021/04/02 12:47:47;;;;;;;1999.90;999.90;;;8.80;98.20;;;;;;4998293;28;20050;-95
2021/04/02 12:50:17;;;;;;;1999.90;999.90;;;8.90;98.30;;;;;;4995615;28;20128;-94
2021/04/02 12:52:48;;;;;;;1999.90;999.90;;;8.80;98.00;;;;;;4995501;28;20062;-95
2021/04/02 12:55:24;;;;;;;1999.90;999.90;;;8.70;98.90;;;;;;4995916;28;20050;-93
2021/04/02 12:57:57;;;;;;;1999.90;999.90;;;8.80;99.90;;;;;;4996280;28;20050;-94
2021/04/02 13:00:27;;;;;;;1999.90;999.90;;;8.70;99.90;;;;;;4996301;28;20482;-95
2021/04/02 13:02:58;;;;;;;1999.90;999.90;;;8.60;99.90;;;;;;4997263;28;20377;-93
2021/04/02 13:05:25;;;;;;;1999.90;999.90;;;8.60;99.80;;;;;;4995885;28;20466;-94
2021/04/02 13:07:56;;;;;;;1999.90;999.90;;;8.60;99.90;;;;;;4997230;28;20077;-93
2021/04/02 13:10:27;;;;;;;1999.90;999.90;;;8.60;99.90;;;;;;4996957;28;20055;-95
2021/04/02 13:12:58;;;;;;;1999.90;999.90;;;8.50;99.60;;;;;;4997210;28;20108;-94
2021/04/02 13:15:26;;;;;;;1999.90;999.90;;;8.50;99.90;;;;;;4997388;28;20043;-93
2021/04/02 13:17:59;;;;;;;1999.90;999.90;;;8.60;99.90;;;;;;4997221;28;20059;-94
2021/04/02 13:20:32;;;;;;;1999.90;999.90;;;8.50;99.90;;;;;;4996376;28;20077;-94
2021/04/02 13:23:07;;;;;;;1999.90;999.90;;;8.50;99.90;;;;;;4995780;28;20082;-94
2021/04/02 13:25:36;;;;;;;1999.90;999.90;;;8.50;99.90;;;;;;4998411;28;20038;-94
2021/04/02 13:28:06;;;;;;;1999.90;999.90;;;8.50;99.90;;;;;;4999731;28;20089;-94
2021/04/02 13:30:40;;;;;;;1999.90;999.90;;;8.50;99.90;;;;;;4998959;28;20452;-94
2021/04/02 13:33:11;;;;;;;1999.90;999.90;;;8.50;99.90;;;;;;4999145;28;20050;-94
2021/04/02 13:35:46;;;;;;;1999.90;999.90;;;8.50;99.90;;;;;;4998560;28;20481;-94
2021/04/02 13:38:16;;;;;;;1999.90;999.90;;;8.50;99.90;;;;;;4999257;28;20050;-94
2021/04/02 13:40:52;;;;;;;1999.90;999.90;;;8.50;99.90;;;;;;4999175;28;20124;-95
2021/04/02 13:43:37;;;;;;;1999.90;999.90;;;8.60;99.90;;;;;;4998968;28;20381;-94
2021/04/02 13:46:11;;;;;;;1999.90;999.90;;;8.70;99.90;;;;;;4998341;28;20043;-94
2021/04/02 13:48:56;;;;;;;1999.90;999.90;;;8.60;99.90;;;;;;4999024;28;20060;-93
2021/04/02 13:51:33;;;;;;;1999.90;999.90;;;8.70;99.90;;;;;;4999042;28;20133;-94
2021/04/02 13:54:20;;;;;;;1999.90;999.90;;;8.70;99.70;;;;;;4999041;28;20168;-93
2021/04/02 13:57:29;;;;;;;1999.90;999.90;;;8.70;99.90;;;;;;4997720;28;20062;-94
2021/04/02 14:00:38;;;;;;;1999.90;999.90;;;8.70;99.90;;;;;;4977779;28;20034;-94
2021/04/02 14:03:43;;;;;;;1999.90;999.90;;;8.80;99.80;;;;;;4978721;28;20112;-94
2021/04/02 14:06:24;;;;;;;1999.90;999.90;;;8.80;99.20;;;;;;4998977;28;20062;-94
2021/04/02 14:08:58;;;;;;;1999.90;999.90;;;8.80;99.60;;;;;;4997722;28;20046;-94
2021/04/02 14:11:45;;;;;;;1999.90;999.90;;;8.70;99.40;;;;;;4998102;28;20059;-94